Time;durP1;ratioP1;P1;durP2;ratioP2;P2;SDS_P1;SDS_P2;PMS_P1;PMS_P2;Temp;Humidity;BMP_temperature;BMP_pressure;BME280_temperature;BME280_humidity;BME280_pressure;Samples;Min_cycle;Max_cycle;Signal;HPM_P1;HPM_P2
2022/10/22 00:01:42;;;;;;;10.35;3.58;;;;;;;13.81;100.00;100914.56;7377478;19;20636;-68
2022/10/22 00:04:14;;;;;;;9.43;3.58;;;;;;;13.76;100.00;100908.38;7376193;19;20381;-68
2022/10/22 00:06:44;;;;;;;9.35;3.70;;;;;;;13.74;100.00;100911.03;7375369;19;20014;-68
2022/10/22 00:09:14;;;;;;;11.77;4.05;;;;;;;13.71;100.00;100912.78;7378093;19;20293;-68
2022/10/22 00:11:44;;;;;;;12.32;4.28;;;;;;;13.66;100.00;100914.53;7378914;19;20036;-68
2022/10/22 00:14:15;;;;;;;11.35;3.63;;;;;;;13.66;100.00;100906.63;7377896;19;20015;-69
2022/10/22 00:16:44;;;;;;;7.78;3.72;;;;;;;13.64;100.00;100916.28;7379376;19;20025;-69
2022/10/22 00:19:17;;;;;;;11.60;4.22;;;;;;;13.65;100.00;100926.81;7377689;19;20010;-69
2022/10/22 00:21:46;;;;;;;11.15;4.05;;;;;;;13.65;100.00;100924.19;7380399;19;20011;-69
2022/10/22 00:24:16;;;;;;;8.73;3.33;;;;;;;13.68;100.00;100931.22;7375547;19;20322;-68
2022/10/22 00:26:46;;;;;;;10.38;3.55;;;;;;;13.68;100.00;100928.59;7379978;19;20021;-69
2022/10/22 00:29:17;;;;;;;12.15;4.05;;;;;;;13.66;100.00;100932.97;7381410;19;20006;-68
2022/10/22 00:31:48;;;;;;;8.68;3.65;;;;;;;13.65;100.00;100928.56;7381019;19;20014;-69
2022/10/22 00:34:22;;;;;;;7.75;3.92;;;;;;;13.71;100.00;100931.22;7381691;19;20017;-69
2022/10/22 00:36:53;;;;;;;11.40;3.97;;;;;;;13.77;100.00;100935.63;7383008;19;20017;-69
2022/10/22 00:39:25;;;;;;;10.50;4.15;;;;;;;13.78;100.00;100934.75;7381961;19;20014;-70
2022/10/22 00:41:58;;;;;;;9.73;3.97;;;;;;;13.78;100.00;100932.13;7378499;19;20255;-70
2022/10/22 00:44:57;;;;;;;11.90;4.30;;;;;;;13.79;100.00;100940.03;7375303;19;20281;-70
2022/10/22 00:47:29;;;;;;;14.68;4.97;;;;;;;13.79;100.00;100933.88;7382649;19;20014;-70
2022/10/22 00:50:02;;;;;;;13.27;5.35;;;;;;;13.78;100.00;100937.38;7381988;19;20019;-70
2022/10/22 00:52:56;;;;;;;9.77;4.07;;;;;;;13.81;100.00;100937.41;7377687;19;20030;-71
2022/10/22 00:55:27;;;;;;;14.77;3.88;;;;;;;13.84;100.00;100943.56;7378736;19;20271;-70
2022/10/22 00:57:58;;;;;;;9.82;4.45;;;;;;;13.90;100.00;100947.97;7378048;19;20011;-70
2022/10/22 01:00:29;;;;;;;12.98;4.32;;;;;;;13.83;100.00;100939.16;7381640;19;20021;-70
2022/10/22 01:02:59;;;;;;;9.88;3.70;;;;;;;13.82;100.00;100940.03;7381060;19;20715;-70
2022/10/22 01:05:34;;;;;;;14.15;3.97;;;;;;;13.88;100.00;100939.16;7372894;19;20014;-70
2022/10/22 01:08:04;;;;;;;12.82;4.53;;;;;;;13.89;100.00;100943.56;7379315;19;20010;-70
2022/10/22 01:11:01;;;;;;;13.35;3.80;;;;;;;13.86;100.00;100939.16;7377071;19;20523;-69
2022/10/22 01:13:45;;;;;;;9.75;4.10;;;;;;;13.90;100.00;100955.88;7377584;19;20021;-69
2022/10/22 01:16:18;;;;;;;;;;;;;;;13.88;100.00;100947.94;7376768;19;20634;-69
2022/10/22 01:18:58;;;;;;;11.80;3.80;;;;;;;13.96;100.00;100953.25;7377796;19;19919;-69
2022/10/22 01:21:35;;;;;;;15.55;4.18;;;;;;;13.95;100.00;100956.75;7379438;19;20011;-68
2022/10/22 01:24:29;;;;;;;11.45;3.70;;;;;;;13.94;100.00;100960.25;7375174;19;20006;-69
2022/10/22 01:27:11;;;;;;;10.95;3.70;;;;;;;13.95;100.00;100962.03;7378524;19;20078;-69
2022/10/22 01:29:48;;;;;;;10.88;4.15;;;;;;;13.97;100.00;100955.00;7364250;19;20014;-69
2022/10/22 01:32:22;;;;;;;8.30;3.65;;;;;;;13.99;100.00;100958.50;7379640;19;20014;-69
2022/10/22 01:34:54;;;;;;;;;;;;;;;13.95;100.00;100948.84;7378295;19;20021;-69
2022/10/22 01:37:28;;;;;;;10.00;3.75;;;;;;;13.93;100.00;100955.88;7379988;19;19918;-69
2022/10/22 01:39:59;;;;;;;11.65;3.97;;;;;;;13.93;100.00;100953.22;7377930;19;20485;-70
2022/10/22 01:42:29;;;;;;;8.23;3.58;;;;;;;13.87;100.00;100956.75;7374173;19;20018;-70
2022/10/22 01:45:01;;;;;;;10.60;4.03;;;;;;;13.90;100.00;100947.97;7378183;19;20031;-69
2022/10/22 01:47:44;;;;;;;9.43;3.90;;;;;;;13.85;100.00;100952.34;7377119;19;20014;-69
2022/10/22 01:50:49;;;;;;;10.13;3.85;;;;;;;13.85;100.00;100949.69;7377458;19;20046;-69
2022/10/22 01:53:34;;;;;;;13.38;3.67;;;;;;;13.85;100.00;100953.22;7376730;19;20018;-69
2022/10/22 01:56:16;;;;;;;15.00;4.22;;;;;;;13.84;100.00;100943.56;7379585;19;20014;-69
2022/10/22 01:58:56;;;;;;;14.70;3.92;;;;;;;13.82;100.00;100947.94;7377098;19;20021;-69
2022/10/22 02:01:35;;;;;;;11.98;4.25;;;;;;;13.83;100.00;100954.97;7381192;19;20034;-69
2022/10/22 02:04:20;;;;;;;15.48;4.20;;;;;;;13.76;100.00;100940.03;7376440;19;20027;-69
2022/10/22 02:06:53;;;;;;;10.43;4.30;;;;;;;13.75;100.00;100948.81;7376345;19;20452;-70
2022/10/22 02:09:27;;;;;;;10.25;3.60;;;;;;;13.68;100.00;100954.94;7379006;19;20265;-70
2022/10/22 02:11:58;;;;;;;12.48;4.70;;;;;;;13.74;100.00;100945.28;7379317;19;20022;-69
2022/10/22 02:14:32;;;;;;;15.35;4.00;;;;;;;13.73;100.00;100954.06;7375648;19;20021;-68
2022/10/22 02:17:05;;;;;;;;;;;;;;;13.80;100.00;100949.69;7378232;19;20025;-69
2022/10/22 02:19:43;;;;;;;11.57;3.72;;;;;;;13.86;100.00;100948.81;7381037;19;19922;-69
2022/10/22 02:22:13;;;;;;;10.43;3.55;;;;;;;13.78;100.00;100954.09;7376131;19;20451;-69
2022/10/22 02:24:43;;;;;;;14.45;3.70;;;;;;;13.85;100.00;100949.69;7376757;19;20539;-69
2022/10/22 02:27:22;;;;;;;8.43;3.05;;;;;;;13.82;100.00;100954.97;7376660;19;20021;-69
2022/10/22 02:30:00;;;;;;;9.27;3.33;;;;;;;13.79;100.00;100949.69;7379279;19;20018;-70
2022/10/22 02:32:37;;;;;;;10.50;3.15;;;;;;;13.69;100.00;100954.94;7374580;19;20018;-69
2022/10/22 02:35:09;;;;;;;13.55;3.67;;;;;;;13.69;100.00;100957.56;7380654;19;20022;-69
2022/10/22 02:37:39;;;;;;;15.10;3.58;;;;;;;13.72;100.00;100960.22;7374192;19;20003;-69
2022/10/22 02:40:10;;;;;;;14.30;3.35;;;;;;;13.67;100.00;100958.44;7374727;19;20319;-69
2022/10/22 02:42:42;;;;;;;16.70;3.85;;;;;;;13.74;100.00;100960.22;7373029;19;20015;-69
2022/10/22 02:45:12;;;;;;;13.23;4.03;;;;;;;13.66;100.00;100954.94;7376812;19;20044;-69
2022/10/22 02:47:44;;;;;;;10.02;3.30;;;;;;;13.64;100.00;100946.16;7375508;19;20006;-69
2022/10/22 02:50:14;;;;;;;10.73;3.20;;;;;;;13.63;100.00;100951.41;7376865;19;20047;-69
2022/10/22 02:52:43;;;;;;;7.63;3.20;;;;;;;13.72;100.00;100954.94;7371612;19;20018;-69
2022/10/22 02:55:13;;;;;;;13.32;3.53;;;;;;;13.66;100.00;100954.06;7373027;19;20022;-70
2022/10/22 02:57:43;;;;;;;9.93;3.30;;;;;;;13.60;100.00;100951.41;7375612;19;20057;-70
2022/10/22 03:00:14;;;;;;;14.85;3.88;;;;;;;13.58;100.00;100956.66;7374911;19;20238;-70
2022/10/22 03:02:46;;;;;;;12.68;3.28;;;;;;;13.55;100.00;100955.78;7366792;19;20021;-70
2022/10/22 03:05:16;;;;;;;9.93;3.38;;;;;;;13.62;100.00;100957.56;7370937;19;20451;-69
2022/10/22 03:07:45;;;;;;;12.93;4.03;;;;;;;13.57;100.00;100959.31;7375800;19;20014;-69
2022/10/22 03:10:15;;;;;;;11.45;3.20;;;;;;;13.60;100.00;100962.81;7375119;19;20487;-70
2022/10/22 03:12:44;;;;;;;10.50;3.33;;;;;;;13.58;100.00;100958.44;7377641;19;20331;-69
2022/10/22 03:15:14;;;;;;;8.32;3.50;;;;;;;13.55;100.00;100961.94;7373343;19;20010;-71
2022/10/22 03:17:47;;;;;;;10.68;3.55;;;;;;;13.62;100.00;100963.72;7374684;19;20039;-70
2022/10/22 03:20:16;;;;;;;11.40;3.30;;;;;;;13.69;100.00;100954.94;7373941;19;20015;-70
2022/10/22 03:22:46;;;;;;;6.82;2.70;;;;;;;13.61;100.00;100956.69;7371673;19;20017;-70
2022/10/22 03:25:20;;;;;;;11.13;4.10;;;;;;;13.72;100.00;100960.22;7375083;19;20014;-69
2022/10/22 03:27:52;;;;;;;11.40;3.83;;;;;;;13.71;100.00;100962.84;7379556;19;20010;-70
2022/10/22 03:30:22;;;;;;;10.25;3.17;;;;;;;13.69;100.00;100965.47;7383396;19;20014;-68
2022/10/22 03:32:54;;;;;;;10.15;3.47;;;;;;;13.79;100.00;100963.75;7382852;19;20010;-68
2022/10/22 03:35:24;;;;;;;14.77;3.75;;;;;;;13.74;100.00;100966.38;7384345;19;20028;-68
2022/10/22 03:37:55;;;;;;;11.77;3.80;;;;;;;13.73;100.00;100967.25;7384856;19;20102;-68
2022/10/22 03:40:25;;;;;;;7.28;3.00;;;;;;;13.76;100.00;100966.38;7382670;19;20010;-68
2022/10/22 03:42:55;;;;;;;10.98;3.45;;;;;;;13.72;100.00;100972.53;7380855;19;20007;-68
2022/10/22 03:45:24;;;;;;;7.78;3.00;;;;;;;13.76;100.00;100971.66;7379252;19;20639;-70
2022/10/22 03:47:57;;;;;;;16.45;4.28;;;;;;;13.76;100.00;100971.66;7384824;19;20369;-68
2022/10/22 03:50:27;;;;;;;10.85;3.33;;;;;;;13.83;100.00;100973.44;7383755;19;20038;-72
2022/10/22 03:52:57;;;;;;;9.30;3.42;;;;;;;13.72;100.00;100976.03;7380254;19;20025;-71
2022/10/22 03:55:26;;;;;;;9.82;3.20;;;;;;;13.82;100.00;100976.94;7381384;19;21279;-72
2022/10/22 03:57:56;;;;;;;9.82;3.05;;;;;;;13.83;100.00;100978.69;7384295;19;20021;-71
2022/10/22 04:00:28;;;;;;;9.55;3.10;;;;;;;13.81;100.00;100980.44;7381825;19;20138;-72
2022/10/22 04:03:00;;;;;;;11.05;3.20;;;;;;;13.81;100.00;100974.31;7379386;19;20018;-72
2022/10/22 04:05:30;;;;;;;9.00;3.40;;;;;;;13.78;100.00;100980.44;7377380;19;20018;-70
2022/10/22 04:08:00;;;;;;;11.38;3.53;;;;;;;13.71;100.00;100990.09;7383372;19;20018;-72
2022/10/22 04:10:29;;;;;;;13.43;3.08;;;;;;;13.74;100.00;100981.31;7379025;19;20017;-70
2022/10/22 04:12:59;;;;;;;9.57;3.25;;;;;;;13.72;100.00;100980.44;7385874;19;20027;-70
2022/10/22 04:15:29;;;;;;;8.80;3.40;;;;;;;13.72;100.00;100985.69;7384712;19;20013;-71
2022/10/22 04:18:01;;;;;;;11.25;3.60;;;;;;;13.70;100.00;100982.19;7382878;19;20015;-70
2022/10/22 04:20:31;;;;;;;7.95;3.20;;;;;;;13.79;100.00;100983.97;7381664;19;20011;-70
2022/10/22 04:23:01;;;;;;;11.00;3.13;;;;;;;13.78;100.00;100990.09;7378807;19;20258;-70
2022/10/22 04:25:30;;;;;;;10.20;3.60;;;;;;;13.77;100.00;100993.63;7379784;19;20018;-70
2022/10/22 04:28:00;;;;;;;9.15;3.25;;;;;;;13.72;100.00;100994.50;7380114;19;20025;-70
2022/10/22 04:30:30;;;;;;;8.02;2.97;;;;;;;13.68;100.00;100995.34;7380767;19;20010;-70
2022/10/22 04:33:02;;;;;;;9.73;3.40;;;;;;;13.74;100.00;100997.13;7380931;19;20010;-68
2022/10/22 04:35:32;;;;;;;12.52;2.90;;;;;;;13.68;100.00;100997.09;7380112;19;20013;-68
2022/10/22 04:38:01;;;;;;;10.40;3.08;;;;;;;13.62;100.00;100995.34;7370967;19;20025;-69
2022/10/22 04:40:31;;;;;;;9.18;3.20;;;;;;;13.61;100.00;101000.59;7378788;19;20014;-69
2022/10/22 04:43:01;;;;;;;12.27;3.63;;;;;;;13.60;100.00;101009.38;7380589;19;20003;-68
2022/10/22 04:45:30;;;;;;;11.95;3.63;;;;;;;13.56;100.00;101010.25;7381654;19;20018;-69
2022/10/22 04:48:03;;;;;;;9.10;2.95;;;;;;;13.51;100.00;101006.75;7380047;19;20025;-69
2022/10/22 04:50:33;;;;;;;11.35;3.75;;;;;;;13.47;100.00;101010.25;7379400;19;20010;-69
2022/10/22 04:53:02;;;;;;;10.38;3.15;;;;;;;13.49;100.00;101013.75;7377447;19;20010;-68
2022/10/22 04:55:32;;;;;;;10.35;3.70;;;;;;;13.46;100.00;101011.13;7379246;19;20013;-68
2022/10/22 04:58:02;;;;;;;12.27;3.90;;;;;;;13.36;100.00;101018.97;7381096;19;20494;-68
2022/10/22 05:00:31;;;;;;;9.25;3.08;;;;;;;13.39;100.00;101008.44;7374924;19;20010;-68
2022/10/22 05:03:04;;;;;;;10.23;3.22;;;;;;;13.34;100.00;101025.09;7378852;19;20019;-69
2022/10/22 05:05:34;;;;;;;11.88;3.17;;;;;;;13.28;100.00;101038.25;7377387;19;20006;-69
2022/10/22 05:08:03;;;;;;;13.15;3.25;;;;;;;13.23;100.00;101027.69;7380560;19;20063;-68
2022/10/22 05:10:33;;;;;;;15.00;3.42;;;;;;;13.27;100.00;101029.47;7379603;19;20014;-69
2022/10/22 05:13:03;;;;;;;13.40;3.22;;;;;;;13.22;100.00;101027.69;7382449;19;20022;-69
2022/10/22 05:15:32;;;;;;;11.18;3.60;;;;;;;13.23;100.00;101032.94;7378292;19;20018;-68
2022/10/22 05:18:05;;;;;;;8.65;3.05;;;;;;;13.20;100.00;101038.19;7374777;19;20014;-69
2022/10/22 05:20:34;;;;;;;13.00;2.92;;;;;;;13.16;100.00;101032.88;7377789;19;20017;-71
2022/10/22 05:23:25;;;;;;;10.35;3.30;;;;;;;13.18;100.00;101037.31;7380781;19;20039;-69
2022/10/22 05:25:56;;;;;;;10.63;3.38;;;;;;;13.18;100.00;101029.41;7380689;19;20053;-71
2022/10/22 05:28:26;;;;;;;9.77;3.42;;;;;;;13.18;100.00;101033.78;7378586;19;20017;-70
2022/10/22 05:30:56;;;;;;;14.07;3.63;;;;;;;13.23;100.00;101032.94;7379465;19;20019;-70
2022/10/22 05:33:29;;;;;;;10.55;3.75;;;;;;;13.27;100.00;101037.38;7380630;19;20015;-71
2022/10/22 05:36:00;;;;;;;7.95;3.17;;;;;;;13.24;100.00;101032.09;7378771;19;20019;-72
2022/10/22 05:38:30;;;;;;;8.45;3.33;;;;;;;13.22;100.00;101041.72;7376704;19;20015;-72
2022/10/22 05:41:04;;;;;;;8.98;3.20;;;;;;;13.20;100.00;101035.56;7370970;19;20082;-70
2022/10/22 05:43:34;;;;;;;8.55;3.40;;;;;;;13.22;100.00;101046.13;7380466;19;20015;-70
2022/10/22 05:46:05;;;;;;;13.20;4.28;;;;;;;13.21;100.00;101044.34;7379738;19;20019;-70
2022/10/22 05:48:38;;;;;;;11.02;4.93;;;;;;;13.25;100.00;101051.41;7372465;19;20047;-70
2022/10/22 05:51:10;;;;;;;11.17;3.27;;;;;;;13.27;100.00;101057.56;7378529;19;20002;-69
2022/10/22 05:53:42;;;;;;;9.75;2.70;;;;;;;13.29;100.00;101059.31;7374697;19;20300;-70
2022/10/22 05:56:14;;;;;;;12.43;2.97;;;;;;;13.28;100.00;101064.59;7375777;19;20011;-70
2022/10/22 05:58:46;;;;;;;10.73;3.97;;;;;;;13.28;100.00;101065.47;7377295;19;20025;-68
2022/10/22 06:01:18;;;;;;;9.82;3.25;;;;;;;13.30;100.00;101076.91;7376467;19;20006;-68
2022/10/22 06:03:54;;;;;;;9.18;3.05;;;;;;;13.29;100.00;101069.88;7376954;19;20010;-68
2022/10/22 06:06:29;;;;;;;12.65;3.40;;;;;;;13.40;100.00;101081.34;7376985;19;20447;-69
2022/10/22 06:09:03;;;;;;;10.35;4.13;;;;;;;13.41;100.00;101075.19;7377918;19;20323;-69
2022/10/22 06:11:33;;;;;;;10.55;3.70;;;;;;;13.38;100.00;101082.22;7376544;19;20018;-69
2022/10/22 06:14:04;;;;;;;9.38;4.78;;;;;;;13.37;100.00;101068.16;7376956;19;20011;-69
2022/10/22 06:16:34;;;;;;;13.25;2.97;;;;;;;13.40;100.00;101083.97;7373372;19;20021;-69
2022/10/22 06:19:06;;;;;;;11.07;3.05;;;;;;;13.40;100.00;101091.00;7376742;19;20040;-69
2022/10/22 06:21:36;;;;;;;11.38;3.58;;;;;;;13.40;100.00;101091.00;7373510;19;20022;-71
2022/10/22 06:24:06;;;;;;;14.75;3.80;;;;;;;13.42;100.00;101091.88;7375262;19;20460;-71
2022/10/22 06:26:36;;;;;;;10.55;3.33;;;;;;;13.40;100.00;101089.25;7371975;19;20015;-70
2022/10/22 06:29:06;;;;;;;10.48;3.10;;;;;;;13.43;100.00;101092.78;7376722;19;20023;-71
2022/10/22 06:31:37;;;;;;;10.77;3.53;;;;;;;13.42;100.00;101097.16;7376146;19;20029;-71
2022/10/22 06:34:12;;;;;;;9.95;3.10;;;;;;;13.42;100.00;101105.06;7373921;19;20017;-71
2022/10/22 06:36:42;;;;;;;8.98;2.83;;;;;;;13.46;100.00;101105.97;7372400;19;20522;-71
2022/10/22 06:39:13;;;;;;;7.85;3.13;;;;;;;13.46;100.00;101098.06;7373533;19;20056;-71
2022/10/22 06:41:44;;;;;;;10.85;3.08;;;;;;;13.49;100.00;101103.34;7371283;19;20129;-71
2022/10/22 06:44:16;;;;;;;13.43;3.60;;;;;;;13.52;100.00;101104.22;7376160;19;20006;-71
2022/10/22 06:46:46;;;;;;;10.88;2.80;;;;;;;13.53;100.00;101113.00;7377372;19;20028;-69
2022/10/22 06:49:19;;;;;;;14.20;3.20;;;;;;;13.57;100.00;101114.78;7373101;19;20086;-68
2022/10/22 06:51:51;;;;;;;12.75;3.05;;;;;;;13.65;100.00;101121.84;7375129;19;20014;-69
2022/10/22 06:54:21;;;;;;;11.43;3.10;;;;;;;13.68;100.00;101127.13;7371227;19;20018;-70
2022/10/22 06:56:51;;;;;;;8.07;2.55;;;;;;;13.71;100.00;101121.00;7372886;19;20031;-70
2022/10/22 06:59:20;;;;;;;11.15;3.25;;;;;;;13.76;100.00;101119.25;7373036;19;20019;-69
2022/10/22 07:01:50;;;;;;;9.60;2.83;;;;;;;13.84;100.00;101124.56;7370711;19;20035;-71
2022/10/22 07:04:22;;;;;;;11.18;3.08;;;;;;;13.89;100.00;101142.19;7375300;19;20459;-71
2022/10/22 07:06:52;;;;;;;8.98;2.70;;;;;;;13.89;100.00;101142.19;7374954;19;20060;-71
2022/10/22 07:09:22;;;;;;;13.05;3.00;;;;;;;13.91;100.00;101143.06;7373447;19;20030;-71
2022/10/22 07:11:51;;;;;;;8.00;2.78;;;;;;;13.95;100.00;101142.22;7371306;19;20019;-71
2022/10/22 07:14:21;;;;;;;10.80;3.22;;;;;;;13.95;100.00;101151.88;7371897;19;20010;-71
2022/10/22 07:16:50;;;;;;;11.20;3.45;;;;;;;13.96;100.00;101149.25;7371813;19;20026;-71
2022/10/22 07:19:23;;;;;;;11.25;3.05;;;;;;;13.97;100.00;101156.28;7371612;19;20022;-70
2022/10/22 07:21:52;;;;;;;18.15;3.35;;;;;;;13.92;100.00;101163.28;7370936;19;20459;-70
2022/10/22 07:24:22;;;;;;;7.38;3.45;;;;;;;13.89;100.00;101158.00;7369809;19;20014;-72
2022/10/22 07:26:51;;;;;;;11.07;2.72;;;;;;;13.92;100.00;101172.94;7370411;19;20018;-71
2022/10/22 07:29:21;;;;;;;12.23;3.05;;;;;;;13.92;100.00;101168.56;7370121;19;20242;-72
2022/10/22 07:31:51;;;;;;;10.40;3.33;;;;;;;13.88;100.00;101181.72;7373526;19;20017;-71
2022/10/22 07:34:23;;;;;;;8.32;3.17;;;;;;;13.94;100.00;101192.28;7369786;19;20690;-72
2022/10/22 07:36:53;;;;;;;10.55;3.30;;;;;;;14.00;100.00;101202.88;7368633;19;20258;-71
2022/10/22 07:39:24;;;;;;;9.07;2.92;;;;;;;14.06;100.00;101201.16;7368357;19;20015;-71
2022/10/22 07:41:54;;;;;;;10.35;2.97;;;;;;;14.20;100.00;101210.88;7371564;19;20370;-71
2022/10/22 07:44:24;;;;;;;9.27;2.90;;;;;;;14.25;100.00;101211.78;7368424;19;20018;-71
2022/10/22 07:46:54;;;;;;;10.55;3.30;;;;;;;14.30;100.00;101208.28;7372827;19;20021;-71
2022/10/22 07:49:26;;;;;;;11.70;3.45;;;;;;;14.37;100.00;101214.47;7370754;19;20018;-71
2022/10/22 07:51:56;;;;;;;9.63;3.00;;;;;;;14.48;100.00;101215.44;7370120;19;20086;-71
2022/10/22 07:54:26;;;;;;;14.60;3.70;;;;;;;14.56;100.00;101216.31;7373408;19;20048;-71
2022/10/22 07:56:56;;;;;;;12.73;3.53;;;;;;;14.59;100.00;101216.31;7375999;19;20019;-71
2022/10/22 07:59:26;;;;;;;10.43;3.25;;;;;;;14.60;100.00;101226.00;7375559;19;20018;-71
2022/10/22 08:01:55;;;;;;;8.18;2.80;;;;;;;14.59;100.00;101232.16;7373108;19;20547;-72
2022/10/22 08:04:28;;;;;;;11.27;3.05;;;;;;;14.62;100.00;101226.88;7374220;19;20011;-71
2022/10/22 08:06:57;;;;;;;12.07;3.75;;;;;;;14.62;100.00;101242.72;7376821;19;20737;-71
2022/10/22 08:09:27;;;;;;;13.18;3.72;;;;;;;14.68;100.00;101237.44;7372177;19;20022;-71
2022/10/22 08:11:56;;;;;;;10.75;2.90;;;;;;;14.67;100.00;101240.97;7378120;19;20041;-70
2022/10/22 08:14:26;;;;;;;10.23;3.33;;;;;;;14.67;100.00;101251.53;7378592;19;20020;-68
2022/10/22 08:16:56;;;;;;;7.32;2.80;;;;;;;14.65;100.00;101260.31;7382898;19;20014;-69
2022/10/22 08:19:31;;;;;;;7.15;2.65;;;;;;;14.67;100.00;101256.81;7379611;19;20025;-69
2022/10/22 08:22:01;;;;;;;12.88;3.75;;;;;;;14.72;100.00;101265.63;7381626;19;20141;-69
2022/10/22 08:24:30;;;;;;;9.98;2.95;;;;;;;14.71;100.00;101265.63;7377762;19;20025;-71
2022/10/22 08:27:00;;;;;;;12.27;2.80;;;;;;;14.70;100.00;101266.50;7377626;19;20018;-71
2022/10/22 08:29:30;;;;;;;11.68;2.85;;;;;;;14.74;100.00;101257.72;7377497;19;20091;-71
2022/10/22 08:32:01;;;;;;;8.93;2.78;;;;;;;14.72;100.00;101259.47;7376374;19;20022;-71
2022/10/22 08:34:34;;;;;;;10.43;3.10;;;;;;;14.71;100.00;101263.88;7378771;19;20036;-70
2022/10/22 08:37:04;;;;;;;11.35;2.90;;;;;;;14.69;100.00;101265.63;7376301;19;20018;-72
2022/10/22 08:39:34;;;;;;;10.70;3.22;;;;;;;14.77;100.00;101277.97;7379193;19;20031;-71
2022/10/22 08:42:12;;;;;;;9.52;2.50;;;;;;;14.87;100.00;101277.13;7377936;19;20018;-70
2022/10/22 08:45:08;;;;;;;13.27;2.90;;;;;;;15.04;100.00;101278.91;7378593;19;20022;-70
2022/10/22 08:48:00;;;;;;;11.73;3.88;;;;;;;15.14;100.00;101285.09;7376838;19;20006;-70
2022/10/22 08:50:40;;;;;;;9.60;3.55;;;;;;;15.19;100.00;101293.91;7377052;19;20021;-71
2022/10/22 08:53:15;;;;;;;9.85;3.10;;;;;;;15.23;100.00;101294.78;7374514;19;20003;-71
2022/10/22 08:55:48;;;;;;;12.13;3.08;;;;;;;15.26;100.00;101305.38;7374918;19;20029;-70
2022/10/22 08:58:22;;;;;;;5.85;2.58;;;;;;;15.38;100.00;101303.63;7374089;19;20011;-70
2022/10/22 09:00:57;;;;;;;;;;;;;;;15.42;100.00;101306.28;7374191;19;20018;-71
2022/10/22 09:03:37;;;;;;;16.25;4.40;;;;;;;15.36;100.00;101301.88;7374507;19;19926;-71
2022/10/22 09:06:15;;;;;;;10.38;3.40;;;;;;;15.37;100.00;101309.78;7372101;19;20010;-71
2022/10/22 09:08:48;;;;;;;11.30;3.40;;;;;;;15.47;100.00;101318.63;7371740;19;20035;-71
2022/10/22 09:11:25;;;;;;;11.32;3.20;;;;;;;15.61;100.00;101318.63;7372918;19;20021;-70
2022/10/22 09:13:58;;;;;;;12.27;3.42;;;;;;;15.78;100.00;101322.16;7370229;19;20014;-70
2022/10/22 09:16:38;;;;;;;11.63;3.30;;;;;;;15.68;100.00;101318.63;7372773;19;20018;-69
2022/10/22 09:19:19;;;;;;;11.35;3.13;;;;;;;15.63;100.00;101324.78;7372111;19;20738;-71
2022/10/22 09:22:03;;;;;;;12.30;3.40;;;;;;;15.70;100.00;101330.09;7374921;19;20022;-69
2022/10/22 09:24:38;;;;;;;9.20;2.80;;;;;;;15.78;100.00;101342.44;7375421;19;20033;-71
2022/10/22 09:27:14;;;;;;;10.25;3.38;;;;;;;15.96;100.00;101332.72;7373173;19;20102;-70
2022/10/22 09:29:46;;;;;;;9.13;3.10;;;;;;;16.22;100.00;101340.63;7373788;19;20501;-71
2022/10/22 09:32:17;;;;;;;9.70;3.22;;;;;;;16.17;100.00;101336.22;7375854;19;20476;-71
2022/10/22 09:34:47;;;;;;;12.80;3.83;;;;;;;16.19;100.00;101345.91;7374814;19;20018;-71
2022/10/22 09:37:27;;;;;;;10.23;2.90;;;;;;;16.03;100.00;101342.41;7375359;19;20030;-69
2022/10/22 09:39:58;;;;;;;12.30;3.35;;;;;;;16.32;100.00;101354.72;7377599;19;20018;-69
2022/10/22 09:42:28;;;;;;;12.48;3.38;;;;;;;16.50;100.00;101348.50;7374117;19;20010;-70
2022/10/22 09:45:01;;;;;;;13.57;2.70;;;;;;;16.41;100.00;101352.06;7377383;19;20015;-69
2022/10/22 09:47:35;;;;;;;9.18;2.88;;;;;;;16.55;100.00;101357.31;7375324;19;20022;-69
2022/10/22 09:50:30;;;;;;;15.15;2.78;;;;;;;16.49;100.00;101350.25;7367958;19;20570;-69
2022/10/22 09:53:13;;;;;;;8.85;2.97;;;;;;;16.75;100.00;101357.25;7372404;19;20025;-68
2022/10/22 09:55:44;;;;;;;10.27;3.30;;;;;;;16.73;100.00;101359.00;7367260;19;20482;-70
2022/10/22 09:58:15;;;;;;;12.00;3.13;;;;;;;16.73;100.00;101366.97;7370207;19;20026;-68
2022/10/22 10:00:50;;;;;;;13.68;2.90;;;;;;;16.65;100.00;101367.00;7369013;19;20018;-70
2022/10/22 10:03:21;;;;;;;11.52;3.03;;;;;;;16.87;100.00;101357.19;7367892;19;20025;-68
2022/10/22 10:05:54;;;;;;;8.18;2.42;;;;;;;16.85;100.00;101365.16;7368971;19;20013;-68
2022/10/22 10:08:26;;;;;;;10.07;2.90;;;;;;;16.78;100.00;101368.72;7370628;19;20484;-69
2022/10/22 10:11:00;;;;;;;11.40;2.60;;;;;;;16.88;100.00;101372.19;7367520;19;20018;-69
2022/10/22 10:13:48;;;;;;;8.23;2.58;;;;;;;16.98;100.00;101381.88;7376198;19;20071;-69
2022/10/22 10:16:38;;;;;;;12.35;3.13;;;;;;;17.22;100.00;101392.34;7368373;19;20049;-68
2022/10/22 10:19:21;;;;;;;10.38;2.50;;;;;;;17.33;100.00;101393.19;7378025;19;20010;-68
2022/10/22 10:22:01;;;;;;;7.88;2.30;;;;;;;17.27;100.00;101390.56;7374092;19;20028;-69
2022/10/22 10:24:47;;;;;;;10.52;2.75;;;;;;;17.47;100.00;101400.19;7370517;19;20510;-68
2022/10/22 10:27:26;;;;;;;11.95;2.50;;;;;;;17.58;100.00;101411.59;7374941;19;20010;-69
2022/10/22 10:30:04;;;;;;;12.50;3.22;;;;;;;17.59;100.00;101410.72;7371006;19;20022;-69
2022/10/22 10:33:03;;;;;;;15.15;2.78;;;;;;;17.44;100.00;101411.69;7366271;19;20313;-68
2022/10/22 10:35:44;;;;;;;10.70;2.83;;;;;;;17.79;100.00;101410.56;7367710;19;20017;-68
2022/10/22 10:38:26;;;;;;;13.63;3.30;;;;;;;17.70;100.00;101424.78;7366747;19;20022;-69
2022/10/22 10:41:11;;;;;;;10.52;2.58;;;;;;;17.54;100.00;101425.78;7372758;19;20006;-69
2022/10/22 10:43:52;;;;;;;7.32;2.40;;;;;;;17.43;100.00;101420.53;7368385;19;20017;-68
2022/10/22 10:46:31;;;;;;;13.50;3.35;;;;;;;17.48;100.00;101426.69;7373280;19;20034;-69
2022/10/22 10:49:11;;;;;;;12.38;2.75;;;;;;;17.47;100.00;101429.34;7367770;19;20090;-69
2022/10/22 10:51:52;;;;;;;12.77;2.42;;;;;;;17.65;100.00;101429.25;7373231;19;20006;-69
2022/10/22 10:54:31;;;;;;;9.55;2.67;;;;;;;17.79;100.00;101429.16;7369949;19;20022;-69
2022/10/22 10:57:13;;;;;;;14.40;2.90;;;;;;;17.71;100.00;101423.00;7369504;19;20026;-69
2022/10/22 10:59:56;;;;;;;19.00;3.22;;;;;;;17.76;100.00;101430.03;7368174;19;20101;-69
2022/10/22 11:02:54;;;;;;;10.02;2.53;;;;;;;17.96;100.00;101436.09;7364238;19;20014;-69
2022/10/22 11:05:47;;;;;;;11.18;2.92;;;;;;;18.03;100.00;101426.31;7365685;19;20319;-69
2022/10/22 11:08:21;;;;;;;10.68;2.97;;;;;;;17.81;100.00;101437.97;7367716;19;20006;-69
2022/10/22 11:10:55;;;;;;;15.57;2.92;;;;;;;17.64;100.00;101438.09;7366811;19;20094;-69
2022/10/22 11:13:33;;;;;;;11.63;2.20;;;;;;;17.42;100.00;101439.09;7368558;19;20494;-70
2022/10/22 11:16:07;;;;;;;11.05;2.63;;;;;;;17.39;100.00;101441.75;7368710;19;20021;-69
2022/10/22 11:18:40;;;;;;;11.88;2.63;;;;;;;17.47;100.00;101435.53;7368468;19;20025;-70
2022/10/22 11:21:17;;;;;;;13.40;2.70;;;;;;;17.13;100.00;101440.09;7369891;19;20010;-69
2022/10/22 11:23:50;;;;;;;13.98;2.65;;;;;;;17.02;100.00;101454.28;7367722;19;20018;-69
2022/10/22 11:26:31;;;;;;;10.85;2.45;;;;;;;17.16;100.00;101440.09;7370189;19;20015;-69
2022/10/22 11:29:06;;;;;;;11.07;2.72;;;;;;;17.26;100.00;101451.53;7367406;19;20472;-69
2022/10/22 11:31:36;;;;;;;15.52;3.05;;;;;;;17.23;100.00;101454.22;7372539;19;20024;-69
2022/10/22 11:34:15;;;;;;;13.07;2.70;;;;;;;17.24;100.00;101454.19;7372243;19;20011;-69
2022/10/22 11:37:04;;;;;;;13.02;3.00;;;;;;;17.14;100.00;101457.78;7371993;19;20019;-69
2022/10/22 11:39:39;;;;;;;13.90;3.60;;;;;;;17.20;100.00;101452.44;7372330;19;20052;-69
2022/10/22 11:42:13;;;;;;;12.55;2.35;;;;;;;17.30;100.00;101453.28;7369532;19;20011;-69